Time;durP1;ratioP1;P1;durP2;ratioP2;P2;SDS_P1;SDS_P2;PMS_P1;PMS_P2;Temp;Humidity;BMP_temperature;BMP_pressure;BME280_temperature;BME280_humidity;BME280_pressure;Samples;Min_cycle;Max_cycle;Signal;HPM_P1;HPM_P2
2022/04/25 00:01:02;;;;;;;38.63;19.20;;;;;;;;;;4986902;28;20084;-63
2022/04/25 00:03:28;;;;;;;40.15;20.25;;;;;;;;;;4976272;28;20065;-63
2022/04/25 00:05:54;;;;;;;42.55;20.63;;;;;;;;;;4982050;28;20062;-63
2022/04/25 00:08:20;;;;;;;33.53;19.35;;;;;;;;;;4983008;28;20041;-63
2022/04/25 00:10:47;;;;;;;48.60;21.27;;;;;;;;;;4974879;28;20488;-63
2022/04/25 00:13:14;;;;;;;41.30;21.58;;;;;;;;;;4986737;28;20037;-63
2022/04/25 00:15:41;;;;;;;39.83;22.10;;;;;;;;;;4977149;28;20488;-63
2022/04/25 00:18:07;;;;;;;45.58;21.88;;;;;;;;;;4980228;28;20515;-62
2022/04/25 00:20:33;;;;;;;45.22;22.00;;;;;;;;;;4984315;28;20026;-62
2022/04/25 00:23:05;;;;;;;40.45;20.98;;;;;;;;;;4973470;28;20389;-63
2022/04/25 00:25:32;;;;;;;45.80;22.15;;;;;;;;;;4989744;28;20487;-63
2022/04/25 00:27:58;;;;;;;46.10;23.48;;;;;;;;;;4981259;28;20031;-63
2022/04/25 00:30:25;;;;;;;50.95;21.92;;;;;;;;;;4982747;28;20026;-63
2022/04/25 00:32:51;;;;;;;50.22;22.88;;;;;;;;;;4987592;28;20050;-63
2022/04/25 00:35:17;;;;;;;51.10;22.63;;;;;;;;;;4973140;28;20015;-62
2022/04/25 00:37:43;;;;;;;53.50;22.77;;;;;;;;;;4983060;28;20036;-63
2022/04/25 00:40:10;;;;;;;41.25;21.00;;;;;;;;;;4979896;28;20092;-63
2022/04/25 00:42:36;;;;;;;40.33;20.40;;;;;;;;;;4983895;28;20026;-63
2022/04/25 00:45:03;;;;;;;39.80;20.60;;;;;;;;;;4973628;28;20404;-63
2022/04/25 00:47:29;;;;;;;40.33;19.75;;;;;;;;;;4985559;28;20446;-63
2022/04/25 00:49:56;;;;;;;46.50;23.45;;;;;;;;;;4978084;28;20426;-63
2022/04/25 00:52:22;;;;;;;38.70;20.48;;;;;;;;;;4978198;28;20023;-62
2022/04/25 00:54:49;;;;;;;36.15;19.33;;;;;;;;;;4985159;28;20058;-63
2022/04/25 00:57:16;;;;;;;39.55;20.02;;;;;;;;;;4973070;28;20046;-63
2022/04/25 00:59:44;;;;;;;38.20;19.98;;;;;;;;;;4984102;28;20042;-63
2022/04/25 01:02:10;;;;;;;41.15;20.75;;;;;;;;;;4974641;28;20065;-62
2022/04/25 01:04:36;;;;;;;31.92;18.48;;;;;;;;;;4982002;28;20045;-63
2022/04/25 01:07:03;;;;;;;36.03;18.50;;;;;;;;;;4972146;28;20035;-63
2022/04/25 01:09:29;;;;;;;41.33;19.90;;;;;;;;;;4985798;28;20103;-62
2022/04/25 01:11:58;;;;;;;32.95;18.77;;;;;;;;;;4977392;28;20034;-63
2022/04/25 01:14:24;;;;;;;39.15;19.35;;;;;;;;;;4978490;28;20496;-63
2022/04/25 01:16:51;;;;;;;32.40;18.58;;;;;;;;;;4984687;28;20037;-63
2022/04/25 01:19:17;;;;;;;41.50;19.88;;;;;;;;;;4973156;28;20047;-62
2022/04/25 01:22:07;;;;;;;35.17;18.52;;;;;;;;;;4983840;28;20034;-62
2022/04/25 01:27:18;;;;;;;37.28;17.65;;;;;;;;;;4985168;28;20034;-63
2022/04/25 01:29:45;;;;;;;38.70;19.35;;;;;;;;;;4976712;28;20017;-63
2022/04/25 01:32:11;;;;;;;35.90;18.65;;;;;;;;;;4980071;28;20073;-63
2022/04/25 01:34:38;;;;;;;38.35;19.67;;;;;;;;;;4982483;28;20038;-63
2022/04/25 01:37:12;;;;;;;37.40;18.05;;;;;;;;;;4972925;28;20038;-63
2022/04/25 01:39:39;;;;;;;32.05;18.98;;;;;;;;;;4974538;28;20052;-63
2022/04/25 01:42:06;;;;;;;35.42;18.85;;;;;;;;;;4980873;28;20365;-62
2022/04/25 01:44:32;;;;;;;32.05;18.80;;;;;;;;;;4977554;28;20085;-63
2022/04/25 01:46:59;;;;;;;31.92;16.95;;;;;;;;;;4984689;28;20034;-63
2022/04/25 01:49:25;;;;;;;34.58;17.33;;;;;;;;;;4975714;28;20030;-63
2022/04/25 01:51:51;;;;;;;34.08;18.45;;;;;;;;;;4986481;28;20031;-63
2022/04/25 01:54:20;;;;;;;33.22;18.98;;;;;;;;;;4981644;28;20034;-63
2022/04/25 01:56:46;;;;;;;34.22;18.35;;;;;;;;;;4987026;28;20038;-63
2022/04/25 01:59:12;;;;;;;35.60;17.80;;;;;;;;;;4980388;28;20080;-63
2022/04/25 02:01:38;;;;;;;29.70;15.82;;;;;;;;;;4985013;28;20037;-63
2022/04/25 02:04:04;;;;;;;34.25;17.85;;;;;;;;;;4976915;28;20042;-62
2022/04/25 02:06:30;;;;;;;31.35;17.15;;;;;;;;;;4988194;28;20048;-63
2022/04/25 02:08:56;;;;;;;30.67;17.20;;;;;;;;;;4979364;28;20027;-63
2022/04/25 02:11:24;;;;;;;34.30;16.65;;;;;;;;;;4982243;28;20464;-62
2022/04/25 02:13:51;;;;;;;29.63;16.95;;;;;;;;;;4986305;28;20060;-63
2022/04/25 02:16:17;;;;;;;25.85;16.55;;;;;;;;;;4975958;28;20109;-63
2022/04/25 02:18:44;;;;;;;27.33;16.30;;;;;;;;;;4987777;28;20023;-63
2022/04/25 02:21:10;;;;;;;26.02;15.90;;;;;;;;;;4980209;28;20053;-63
2022/04/25 02:23:36;;;;;;;32.28;16.63;;;;;;;;;;4980456;28;20499;-63
2022/04/25 02:26:03;;;;;;;30.80;17.48;;;;;;;;;;4987995;28;20022;-63
2022/04/25 02:28:29;;;;;;;34.38;18.13;;;;;;;;;;4975307;28;20112;-63
2022/04/25 02:30:55;;;;;;;31.30;18.73;;;;;;;;;;4986352;28;20027;-62
2022/04/25 02:33:22;;;;;;;30.90;17.27;;;;;;;;;;4981397;28;20035;-63
2022/04/25 02:35:49;;;;;;;34.88;17.55;;;;;;;;;;4979002;28;20098;-63
2022/04/25 02:38:16;;;;;;;29.88;16.70;;;;;;;;;;4988245;28;20038;-63
2022/04/25 02:40:42;;;;;;;29.58;15.95;;;;;;;;;;4978929;28;20027;-63
2022/04/25 02:43:08;;;;;;;28.77;16.38;;;;;;;;;;4974060;28;20065;-63
2022/04/25 02:45:35;;;;;;;28.85;15.27;;;;;;;;;;4983497;28;20022;-63
2022/04/25 02:48:01;;;;;;;32.25;16.55;;;;;;;;;;4977322;28;20085;-62
2022/04/25 02:50:28;;;;;;;26.42;14.68;;;;;;;;;;4987880;28;20091;-63
2022/04/25 02:52:54;;;;;;;25.65;14.88;;;;;;;;;;4977069;28;20027;-63
2022/04/25 02:55:21;;;;;;;25.35;14.18;;;;;;;;;;4983242;28;20026;-63
2022/04/25 02:57:47;;;;;;;23.77;15.15;;;;;;;;;;4983883;28;20072;-63
2022/04/25 03:00:14;;;;;;;23.88;12.55;;;;;;;;;;4989342;28;20076;-63
2022/04/25 03:02:40;;;;;;;27.17;13.60;;;;;;;;;;4987705;28;20377;-63
2022/04/25 03:05:06;;;;;;;22.23;14.63;;;;;;;;;;4978541;28;20034;-62
2022/04/25 03:07:32;;;;;;;34.33;16.33;;;;;;;;;;4981327;28;20126;-63
2022/04/25 03:09:58;;;;;;;37.00;17.20;;;;;;;;;;4974417;28;20408;-62
2022/04/25 03:12:25;;;;;;;23.42;14.63;;;;;;;;;;4987627;28;20034;-62
2022/04/25 03:14:51;;;;;;;25.27;15.15;;;;;;;;;;4976044;28;20038;-63
2022/04/25 03:17:17;;;;;;;24.95;14.73;;;;;;;;;;4983412;28;20062;-63
2022/04/25 03:19:44;;;;;;;30.10;15.45;;;;;;;;;;4982773;28;20031;-63
2022/04/25 03:22:10;;;;;;;32.55;16.60;;;;;;;;;;4976626;28;20046;-63
2022/04/25 03:24:36;;;;;;;27.38;13.45;;;;;;;;;;4988972;28;20084;-63
2022/04/25 03:27:03;;;;;;;23.10;14.38;;;;;;;;;;4985787;28;20500;-62
2022/04/25 03:29:29;;;;;;;26.25;13.73;;;;;;;;;;4980417;28;20028;-63
2022/04/25 03:31:55;;;;;;;24.67;13.18;;;;;;;;;;4978153;28;20027;-62
2022/04/25 03:34:21;;;;;;;30.02;14.93;;;;;;;;;;4987340;28;20030;-62
2022/04/25 03:36:51;;;;;;;25.92;13.98;;;;;;;;;;4974884;28;20095;-62
2022/04/25 03:39:18;;;;;;;33.80;15.52;;;;;;;;;;4983782;28;20395;-62
2022/04/25 03:41:44;;;;;;;23.58;14.13;;;;;;;;;;4980283;28;20473;-62
2022/04/25 03:44:10;;;;;;;33.25;15.75;;;;;;;;;;4985572;28;20030;-62
2022/04/25 03:46:36;;;;;;;25.92;15.32;;;;;;;;;;4973944;28;20476;-63
2022/04/25 03:49:02;;;;;;;31.75;15.63;;;;;;;;;;4985859;28;20084;-63
2022/04/25 03:51:29;;;;;;;27.98;15.65;;;;;;;;;;4972151;28;20030;-62
2022/04/25 03:53:55;;;;;;;28.27;15.40;;;;;;;;;;4984033;28;20065;-63
2022/04/25 03:59:08;;;;;;;36.95;15.98;;;;;;;;;;4971767;28;20105;-63
2022/04/25 04:01:36;;;;;;;32.33;17.20;;;;;;;;;;4979588;28;20022;-62
2022/04/25 04:04:05;;;;;;;28.88;15.38;;;;;;;;;;4977944;28;20152;-63
2022/04/25 04:06:35;;;;;;;33.60;15.50;;;;;;;;;;4987013;28;20388;-63
2022/04/25 04:09:44;;;;;;;29.00;16.75;;;;;;;;;;4975648;28;20019;-63
2022/04/25 04:11:47;;;;;;;26.60;14.00;;;;;;;;;;4978737;28;20076;-62
2022/04/25 04:14:14;;;;;;;25.73;13.98;;;;;;;;;;4985194;28;20502;-62
2022/04/25 04:16:42;;;;;;;27.00;14.52;;;;;;;;;;4973621;28;20030;-62
2022/04/25 04:19:09;;;;;;;23.88;13.93;;;;;;;;;;4985422;28;20046;-62
2022/04/25 04:21:35;;;;;;;27.73;13.73;;;;;;;;;;4979395;28;20030;-63
2022/04/25 04:24:01;;;;;;;23.88;14.38;;;;;;;;;;4978211;28;20520;-62
2022/04/25 04:26:28;;;;;;;28.63;15.50;;;;;;;;;;4988051;28;20488;-62
2022/04/25 04:28:56;;;;;;;32.70;14.30;;;;;;;;;;4986850;28;20106;-62
2022/04/25 04:31:22;;;;;;;27.25;14.65;;;;;;;;;;4977316;28;20026;-62
2022/04/25 04:33:48;;;;;;;29.15;14.95;;;;;;;;;;4979698;28;20034;-62
2022/04/25 04:36:17;;;;;;;30.65;15.27;;;;;;;;;;4984771;28;20076;-62
2022/04/25 04:38:44;;;;;;;28.80;15.18;;;;;;;;;;4973623;28;20388;-62
2022/04/25 04:41:10;;;;;;;31.77;15.98;;;;;;;;;;4988318;28;20030;-63
2022/04/25 04:43:36;;;;;;;24.23;13.77;;;;;;;;;;4981588;28;20033;-62
2022/04/25 04:46:03;;;;;;;23.42;13.98;;;;;;;;;;4982224;28;20041;-62
2022/04/25 04:48:29;;;;;;;24.42;14.00;;;;;;;;;;4974808;28;20038;-62
2022/04/25 04:50:56;;;;;;;28.85;13.57;;;;;;;;;;4978621;28;20031;-62
2022/04/25 04:53:23;;;;;;;25.30;14.27;;;;;;;;;;4982960;28;20018;-62
2022/04/25 04:55:51;;;;;;;31.38;14.10;;;;;;;;;;4981806;28;20030;-62
2022/04/25 04:58:20;;;;;;;26.02;14.13;;;;;;;;;;4975755;28;20023;-62
2022/04/25 05:00:47;;;;;;;32.67;15.10;;;;;;;;;;4974756;28;20513;-62
2022/04/25 05:03:16;;;;;;;29.88;14.13;;;;;;;;;;4974810;28;20022;-67
2022/04/25 05:05:45;;;;;;;28.45;14.63;;;;;;;;;;4995859;28;20439;-62
2022/04/25 05:08:11;;;;;;;29.17;14.98;;;;;;;;;;4998674;28;20031;-62
2022/04/25 05:10:38;;;;;;;31.60;15.27;;;;;;;;;;4970305;28;20035;-63
2022/04/25 05:13:04;;;;;;;26.45;14.45;;;;;;;;;;4979994;28;20035;-62
2022/04/25 05:15:30;;;;;;;36.13;18.98;;;;;;;;;;4969207;28;20050;-62
2022/04/25 05:17:58;;;;;;;45.40;20.92;;;;;;;;;;4985411;28;20022;-63
2022/04/25 05:20:24;;;;;;;38.10;22.75;;;;;;;;;;4973813;28;20049;-63
2022/04/25 05:22:51;;;;;;;35.55;19.38;;;;;;;;;;4971470;28;20039;-63
2022/04/25 05:25:19;;;;;;;34.00;18.60;;;;;;;;;;4984124;28;20026;-63
2022/04/25 05:27:46;;;;;;;32.60;16.48;;;;;;;;;;4979310;28;20022;-66
2022/04/25 05:30:13;;;;;;;28.35;16.08;;;;;;;;;;4985804;28;20398;-63
2022/04/25 05:32:42;;;;;;;27.42;15.23;;;;;;;;;;4984274;28;20041;-62
2022/04/25 05:35:09;;;;;;;28.25;15.38;;;;;;;;;;4981130;28;20112;-63
2022/04/25 05:37:36;;;;;;;30.65;16.17;;;;;;;;;;4980932;28;20066;-63
2022/04/25 05:40:03;;;;;;;34.33;16.05;;;;;;;;;;4980612;28;20026;-62
2022/04/25 05:42:29;;;;;;;27.33;14.23;;;;;;;;;;4990645;28;20091;-62
2022/04/25 05:44:55;;;;;;;28.50;14.65;;;;;;;;;;4985181;28;20035;-62
2022/04/25 05:47:21;;;;;;;40.78;15.38;;;;;;;;;;4985482;28;20027;-62
2022/04/25 05:52:33;;;;;;;30.92;15.00;;;;;;;;;;4980261;28;20031;-62
2022/04/25 05:54:59;;;;;;;25.58;13.80;;;;;;;;;;4978843;28;20443;-65
2022/04/25 05:57:25;;;;;;;26.48;14.38;;;;;;;;;;4980736;28;20053;-62
2022/04/25 05:59:51;;;;;;;26.77;14.45;;;;;;;;;;4975741;28;20579;-62
2022/04/25 06:02:17;;;;;;;31.83;14.38;;;;;;;;;;4974116;28;20038;-62
2022/04/25 06:04:44;;;;;;;27.35;13.13;;;;;;;;;;4985603;28;20106;-62
2022/04/25 06:07:10;;;;;;;23.50;12.77;;;;;;;;;;4973002;28;20031;-62
2022/04/25 06:09:36;;;;;;;33.83;15.35;;;;;;;;;;4984250;28;20027;-62
2022/04/25 06:12:02;;;;;;;24.20;14.52;;;;;;;;;;4985663;28;20066;-63
2022/04/25 06:14:32;;;;;;;24.70;14.70;;;;;;;;;;4976266;28;20561;-63
2022/04/25 06:16:59;;;;;;;40.35;14.40;;;;;;;;;;4983939;28;20035;-63
2022/04/25 06:19:25;;;;;;;28.38;14.60;;;;;;;;;;4984235;28;20037;-65
2022/04/25 06:21:51;;;;;;;29.63;14.13;;;;;;;;;;4977030;28;20462;-66
2022/04/25 06:24:18;;;;;;;26.83;14.45;;;;;;;;;;4983641;28;20081;-67
2022/04/25 06:26:44;;;;;;;30.23;15.43;;;;;;;;;;4981505;28;20448;-67
2022/04/25 06:29:10;;;;;;;30.13;14.85;;;;;;;;;;4973200;28;20428;-67
2022/04/25 06:31:36;;;;;;;27.83;14.68;;;;;;;;;;4983847;28;20077;-66
2022/04/25 06:34:03;;;;;;;29.13;14.65;;;;;;;;;;4987543;28;20087;-66
2022/04/25 06:36:29;;;;;;;29.77;14.23;;;;;;;;;;4975635;28;20019;-66
2022/04/25 06:38:55;;;;;;;29.25;13.65;;;;;;;;;;4974513;28;20400;-66
2022/04/25 06:41:21;;;;;;;32.20;14.75;;;;;;;;;;4972502;28;20031;-66
2022/04/25 06:43:47;;;;;;;33.65;15.63;;;;;;;;;;4972841;28;20039;-66
2022/04/25 06:46:13;;;;;;;35.80;15.40;;;;;;;;;;4972743;28;20027;-66
2022/04/25 06:48:39;;;;;;;31.55;15.63;;;;;;;;;;4972675;28;20039;-66
2022/04/25 06:51:05;;;;;;;38.70;15.48;;;;;;;;;;4972241;28;20480;-66
2022/04/25 06:53:31;;;;;;;29.40;14.32;;;;;;;;;;4972236;28;20039;-66
2022/04/25 06:55:58;;;;;;;37.30;15.00;;;;;;;;;;4971935;28;20099;-66
2022/04/25 06:58:26;;;;;;;33.28;14.23;;;;;;;;;;4972160;28;20476;-66
2022/04/25 07:00:52;;;;;;;35.90;13.52;;;;;;;;;;4971119;28;20043;-66
2022/04/25 07:03:18;;;;;;;40.10;14.20;;;;;;;;;;4972131;28;20568;-66
2022/04/25 07:05:44;;;;;;;32.83;13.75;;;;;;;;;;4972296;28;20117;-66
2022/04/25 07:08:11;;;;;;;38.85;13.02;;;;;;;;;;4977724;28;20079;-66
2022/04/25 07:10:37;;;;;;;32.75;11.30;;;;;;;;;;4991199;28;20030;-66
2022/04/25 07:13:03;;;;;;;35.95;11.98;;;;;;;;;;4973470;28;20469;-66
2022/04/25 07:15:29;;;;;;;39.95;11.73;;;;;;;;;;4971727;28;20120;-66
2022/04/25 07:17:56;;;;;;;23.67;10.10;;;;;;;;;;4972139;28;20035;-66
2022/04/25 07:20:23;;;;;;;28.92;10.27;;;;;;;;;;4988444;28;20074;-66
2022/04/25 07:31:04;;;;;;;29.13;8.68;;;;;;;;;;4987313;28;20412;-66
2022/04/25 07:33:31;;;;;;;33.67;9.32;;;;;;;;;;4977048;28;20030;-66
2022/04/25 07:35:57;;;;;;;24.48;8.82;;;;;;;;;;4971801;28;20039;-67
2022/04/25 07:38:23;;;;;;;27.48;8.70;;;;;;;;;;4985225;28;20031;-67
2022/04/25 07:40:49;;;;;;;32.38;10.48;;;;;;;;;;4991219;28;20030;-66
2022/04/25 07:43:15;;;;;;;27.33;8.38;;;;;;;;;;4990949;28;20069;-66
2022/04/25 07:45:41;;;;;;;28.20;9.82;;;;;;;;;;4991078;28;20038;-66
2022/04/25 07:48:07;;;;;;;27.85;9.57;;;;;;;;;;4990956;28;20053;-66
2022/04/25 07:50:34;;;;;;;38.60;8.88;;;;;;;;;;4990602;28;20105;-66
2022/04/25 07:53:01;;;;;;;30.13;9.43;;;;;;;;;;4990746;28;20449;-66
2022/04/25 07:55:27;;;;;;;25.15;8.68;;;;;;;;;;4990660;28;20496;-66
2022/04/25 07:57:53;;;;;;;23.50;7.78;;;;;;;;;;4990655;28;20050;-67
2022/04/25 08:00:19;;;;;;;28.45;7.65;;;;;;;;;;4990777;28;20034;-67
2022/04/25 08:02:45;;;;;;;29.75;8.95;;;;;;;;;;4990664;28;20503;-67
2022/04/25 08:05:11;;;;;;;23.88;7.13;;;;;;;;;;4991037;28;20422;-67
2022/04/25 08:07:37;;;;;;;18.40;7.97;;;;;;;;;;4990491;28;20030;-67
2022/04/25 08:10:04;;;;;;;25.02;6.95;;;;;;;;;;4990472;28;20037;-67
2022/04/25 08:18:00;;;;;;;24.38;8.02;;;;;;;;;;4990561;28;20034;-66
2022/04/25 08:20:30;;;;;;;20.60;7.03;;;;;;;;;;4990343;28;20045;-66
2022/04/25 08:22:57;;;;;;;22.65;6.75;;;;;;;;;;4990265;28;20030;-66
2022/04/25 08:25:23;;;;;;;24.50;6.85;;;;;;;;;;4990371;28;20081;-66
2022/04/25 08:27:49;;;;;;;15.13;7.05;;;;;;;;;;4990603;28;20049;-66
2022/04/25 08:30:15;;;;;;;22.52;7.38;;;;;;;;;;4990366;28;20034;-67
2022/04/25 08:32:41;;;;;;;22.27;5.70;;;;;;;;;;4990219;28;20038;-67
2022/04/25 08:35:09;;;;;;;24.48;6.25;;;;;;;;;;4990660;28;20026;-67
2022/04/25 08:37:35;;;;;;;20.52;5.25;;;;;;;;;;4989568;28;20089;-67
2022/04/25 08:40:01;;;;;;;18.77;5.97;;;;;;;;;;4990285;28;20036;-67
2022/04/25 08:42:29;;;;;;;20.27;5.63;;;;;;;;;;4990224;28;20026;-67
2022/04/25 08:44:57;;;;;;;22.77;6.03;;;;;;;;;;4990111;28;20057;-67
2022/04/25 08:47:24;;;;;;;16.73;5.38;;;;;;;;;;4989936;28;20034;-67
2022/04/25 08:49:50;;;;;;;16.20;5.53;;;;;;;;;;4989984;28;20022;-66
2022/04/25 08:52:17;;;;;;;18.67;5.43;;;;;;;;;;4989794;28;20052;-66
2022/04/25 08:54:44;;;;;;;20.55;5.93;;;;;;;;;;4990102;28;20029;-66
2022/04/25 08:57:10;;;;;;;22.48;5.43;;;;;;;;;;4989370;28;20053;-66
2022/04/25 08:59:37;;;;;;;17.98;4.95;;;;;;;;;;4989938;28;20035;-66
2022/04/25 09:02:04;;;;;;;17.05;5.65;;;;;;;;;;4990047;28;20034;-66
2022/04/25 09:04:30;;;;;;;18.77;5.82;;;;;;;;;;4989724;28;20026;-67
2022/04/25 09:06:56;;;;;;;20.13;5.68;;;;;;;;;;4989704;28;20511;-67
2022/04/25 09:09:22;;;;;;;23.88;6.35;;;;;;;;;;4989814;28;20018;-67
2022/04/25 09:14:33;;;;;;;21.50;6.22;;;;;;;;;;4989653;28;20170;-66
2022/04/25 09:17:03;;;;;;;24.33;6.18;;;;;;;;;;4989950;28;20027;-66
2022/04/25 09:19:30;;;;;;;16.83;6.40;;;;;;;;;;4989318;28;20134;-67
2022/04/25 09:21:56;;;;;;;21.40;6.05;;;;;;;;;;4989855;28;20022;-66
2022/04/25 09:24:32;;;;;;;18.73;5.80;;;;;;;;;;4989586;28;20057;-66
2022/04/25 09:27:08;;;;;;;19.60;5.97;;;;;;;;;;4989561;28;20053;-66
2022/04/25 09:29:34;;;;;;;18.70;5.05;;;;;;;;;;4989375;28;20030;-66
2022/04/25 09:32:01;;;;;;;19.58;5.13;;;;;;;;;;4989814;28;20022;-67
2022/04/25 09:37:14;;;;;;;22.48;7.25;;;;;;;;;;4989547;28;20049;-67
2022/04/25 09:39:40;;;;;;;16.40;5.40;;;;;;;;;;4989427;28;20034;-66
2022/04/25 09:42:07;;;;;;;18.85;5.05;;;;;;;;;;4989659;28;20034;-66
2022/04/25 09:44:52;;;;;;;21.95;5.72;;;;;;;;;;4989368;28;20041;-67
2022/04/25 09:47:35;;;;;;;29.02;6.40;;;;;;;;;;4989417;28;20038;-67
2022/04/25 09:50:02;;;;;;;12.48;5.35;;;;;;;;;;4989118;28;20034;-67
2022/04/25 09:52:29;;;;;;;14.82;5.07;;;;;;;;;;4989405;28;20522;-67
2022/04/25 09:54:58;;;;;;;20.05;6.70;;;;;;;;;;4989355;28;20026;-67
2022/04/25 09:57:31;;;;;;;16.33;4.32;;;;;;;;;;4987886;28;20064;-67
2022/04/25 09:59:57;;;;;;;13.75;5.07;;;;;;;;;;4989138;28;20034;-67
2022/04/25 10:02:23;;;;;;;19.23;5.45;;;;;;;;;;4989438;28;20035;-67
2022/04/25 10:04:49;;;;;;;14.88;4.68;;;;;;;;;;4988907;28;20034;-67
2022/04/25 10:07:16;;;;;;;19.20;5.85;;;;;;;;;;4989403;28;20037;-67
2022/04/25 10:09:44;;;;;;;23.98;6.55;;;;;;;;;;4990852;28;20026;-67
2022/04/25 10:12:10;;;;;;;19.40;5.05;;;;;;;;;;4992377;28;20021;-67
2022/04/25 10:14:37;;;;;;;18.33;5.63;;;;;;;;;;4992383;28;20030;-67
2022/04/25 10:17:04;;;;;;;15.18;4.85;;;;;;;;;;4992542;28;20058;-67
2022/04/25 10:19:30;;;;;;;18.13;5.20;;;;;;;;;;4992033;28;20387;-67
2022/04/25 10:21:57;;;;;;;22.77;5.95;;;;;;;;;;4992362;28;20019;-67
2022/04/25 10:24:23;;;;;;;18.73;4.93;;;;;;;;;;4991243;28;20146;-67
2022/04/25 10:26:50;;;;;;;18.42;5.30;;;;;;;;;;4975700;28;20450;-67
2022/04/25 10:29:19;;;;;;;22.60;6.00;;;;;;;;;;4985979;28;20488;-67
2022/04/25 10:31:46;;;;;;;14.18;4.60;;;;;;;;;;4982431;28;20030;-67
2022/04/25 10:34:14;;;;;;;19.90;5.85;;;;;;;;;;4992266;28;20471;-67
2022/04/25 10:36:40;;;;;;;18.02;5.30;;;;;;;;;;4976137;28;20038;-67
2022/04/25 10:39:15;;;;;;;21.80;5.78;;;;;;;;;;4982522;28;20030;-67
2022/04/25 10:44:27;;;;;;;15.98;5.53;;;;;;;;;;4982337;28;20069;-67
2022/04/25 10:47:06;;;;;;;14.55;5.25;;;;;;;;;;4974618;28;20023;-67
2022/04/25 10:49:35;;;;;;;15.50;5.03;;;;;;;;;;4978167;28;20030;-67
2022/04/25 10:52:02;;;;;;;16.70;5.28;;;;;;;;;;4985004;28;20022;-67
2022/04/25 10:54:28;;;;;;;12.20;5.70;;;;;;;;;;4983244;28;20030;-67
2022/04/25 10:57:17;;;;;;;18.13;5.50;;;;;;;;;;4984334;28;20688;-66
2022/04/25 10:59:44;;;;;;;22.15;6.90;;;;;;;;;;4984842;28;20038;-67
2022/04/25 11:02:37;;;;;;;16.73;5.70;;;;;;;;;;4985935;28;20083;-67
2022/04/25 11:05:03;;;;;;;;;;;;;;;;;;4978996;28;20046;-66
2022/04/25 11:07:29;;;;;;;19.27;5.07;;;;;;;;;;4976789;28;19936;-67
2022/04/25 11:09:55;;;;;;;15.25;5.68;;;;;;;;;;4985043;28;20057;-67
2022/04/25 11:12:42;;;;;;;17.02;4.97;;;;;;;;;;4987422;28;20037;-67
2022/04/25 11:15:08;;;;;;;15.90;6.05;;;;;;;;;;4986656;28;20036;-67
2022/04/25 11:17:34;;;;;;;16.42;5.50;;;;;;;;;;4988729;28;20054;-66
2022/04/25 11:20:00;;;;;;;15.00;5.20;;;;;;;;;;4974903;28;20041;-67
2022/04/25 11:22:41;;;;;;;11.65;4.70;;;;;;;;;;4982231;28;20482;-66
2022/04/25 11:25:25;;;;;;;12.45;4.15;;;;;;;;;;4986381;28;20088;-66
2022/04/25 11:28:02;;;;;;;16.63;4.55;;;;;;;;;;4971145;28;20023;-67
2022/04/25 11:30:29;;;;;;;20.60;5.70;;;;;;;;;;4971357;28;20027;-67
2022/04/25 11:33:01;;;;;;;16.80;6.13;;;;;;;;;;4971508;28;20118;-67
2022/04/25 11:35:28;;;;;;;18.20;5.22;;;;;;;;;;4980909;28;20524;-67
2022/04/25 11:37:57;;;;;;;20.42;5.93;;;;;;;;;;5024415;28;20047;-67
2022/04/25 11:40:23;;;;;;;12.52;4.97;;;;;;;;;;5039319;28;20031;-67
2022/04/25 11:42:49;;;;;;;12.15;4.25;;;;;;;;;;5032466;28;20034;-67
2022/04/25 11:45:15;;;;;;;12.30;4.15;;;;;;;;;;4982558;28;20096;-67
2022/04/25 11:47:42;;;;;;;17.13;4.90;;;;;;;;;;4973545;28;20058;-67
2022/04/25 11:50:12;;;;;;;9.55;3.97;;;;;;;;;;4979522;28;20101;-67
2022/04/25 11:52:45;;;;;;;13.48;4.20;;;;;;;;;;4990086;28;20022;-67
2022/04/25 11:55:11;;;;;;;18.88;4.95;;;;;;;;;;4983941;28;20031;-66
2022/04/25 11:57:42;;;;;;;12.45;3.80;;;;;;;;;;4990519;28;20604;-66
2022/04/25 12:00:11;;;;;;;11.98;4.68;;;;;;;;;;4990548;28;20039;-66
2022/04/25 12:02:41;;;;;;;12.38;5.43;;;;;;;;;;4990897;28;20117;-66
2022/04/25 12:05:08;;;;;;;10.98;4.90;;;;;;;;;;4990878;28;20038;-66
2022/04/25 12:07:35;;;;;;;18.35;4.90;;;;;;;;;;4990701;28;20061;-66
2022/04/25 12:15:34;;;;;;;12.15;3.90;;;;;;;;;;4990410;28;20392;-66
2022/04/25 12:18:13;;;;;;;13.43;4.30;;;;;;;;;;4990210;28;20041;-66
2022/04/25 12:20:40;;;;;;;15.48;4.38;;;;;;;;;;4990578;28;20038;-66
2022/04/25 12:23:06;;;;;;;15.43;3.58;;;;;;;;;;4990408;28;20034;-66
2022/04/25 12:25:33;;;;;;;9.43;3.75;;;;;;;;;;4990386;28;20030;-66
2022/04/25 12:28:15;;;;;;;14.52;3.92;;;;;;;;;;4989774;28;20178;-66
2022/04/25 12:31:06;;;;;;;11.07;4.32;;;;;;;;;;4990483;28;20115;-66
2022/04/25 12:33:32;;;;;;;10.23;3.60;;;;;;;;;;4990182;28;20515;-66
2022/04/25 12:36:10;;;;;;;10.82;3.50;;;;;;;;;;4990100;28;20038;-66
2022/04/25 12:38:41;;;;;;;8.07;3.40;;;;;;;;;;4990154;28;20031;-66
2022/04/25 12:41:08;;;;;;;8.20;3.10;;;;;;;;;;4990118;28;20027;-66
2022/04/25 12:43:35;;;;;;;8.93;3.40;;;;;;;;;;4990151;28;20075;-66
2022/04/25 12:46:01;;;;;;;10.45;3.80;;;;;;;;;;4990065;28;20484;-66
2022/04/25 12:48:27;;;;;;;7.88;3.22;;;;;;;;;;4989998;28;20112;-66
2022/04/25 12:50:53;;;;;;;12.23;3.70;;;;;;;;;;4989916;28;20045;-66
2022/04/25 12:53:38;;;;;;;9.05;3.45;;;;;;;;;;4990134;28;20488;-66
2022/04/25 12:56:04;;;;;;;9.95;3.70;;;;;;;;;;4989757;28;20091;-66
2022/04/25 12:58:34;;;;;;;13.57;4.50;;;;;;;;;;4989895;28;20031;-66
2022/04/25 13:01:00;;;;;;;14.15;4.38;;;;;;;;;;4989703;28;20041;-66
2022/04/25 13:03:26;;;;;;;11.02;4.07;;;;;;;;;;4990142;28;20055;-66
2022/04/25 13:05:53;;;;;;;12.95;4.30;;;;;;;;;;4989796;28;20061;-66
2022/04/25 13:08:20;;;;;;;10.32;4.28;;;;;;;;;;4989815;28;20058;-66
2022/04/25 13:10:46;;;;;;;9.93;3.60;;;;;;;;;;4989847;28;20503;-66
2022/04/25 13:13:13;;;;;;;9.48;3.92;;;;;;;;;;4989423;28;20527;-66
2022/04/25 13:15:39;;;;;;;11.75;3.83;;;;;;;;;;4989903;28;20031;-66
2022/04/25 13:18:06;;;;;;;15.75;4.78;;;;;;;;;;4989452;28;20022;-66
2022/04/25 13:20:35;;;;;;;13.90;4.38;;;;;;;;;;4989851;28;20557;-66
2022/04/25 13:23:01;;;;;;;10.57;4.00;;;;;;;;;;4989550;28;20031;-66
2022/04/25 13:25:27;;;;;;;10.20;4.07;;;;;;;;;;4989960;28;20593;-66
2022/04/25 13:27:54;;;;;;;10.70;3.60;;;;;;;;;;4989264;28;20037;-66
2022/04/25 13:30:20;;;;;;;7.57;3.13;;;;;;;;;;4989512;28;20022;-66
2022/04/25 13:32:47;;;;;;;13.93;4.07;;;;;;;;;;4989649;28;20031;-66
2022/04/25 13:35:15;;;;;;;10.32;3.15;;;;;;;;;;4989364;28;20030;-66
2022/04/25 13:37:44;;;;;;;11.32;3.42;;;;;;;;;;4989630;28;20533;-66
2022/04/25 13:40:11;;;;;;;10.68;4.00;;;;;;;;;;4989214;28;20030;-66
2022/04/25 13:42:37;;;;;;;10.65;4.03;;;;;;;;;;4989600;28;20095;-66
2022/04/25 13:45:03;;;;;;;11.55;3.95;;;;;;;;;;4992754;28;20034;-66
2022/04/25 13:47:30;;;;;;;10.90;3.67;;;;;;;;;;4992801;28;20023;-66
2022/04/25 13:49:57;;;;;;;8.82;3.20;;;;;;;;;;4992759;28;20175;-66
2022/04/25 13:52:23;;;;;;;10.95;3.45;;;;;;;;;;4988759;28;20028;-66
2022/04/25 13:54:49;;;;;;;15.45;3.70;;;;;;;;;;4984253;28;20156;-66
2022/04/25 13:57:16;;;;;;;9.35;3.80;;;;;;;;;;4981663;28;20053;-66
2022/04/25 13:59:43;;;;;;;11.32;3.25;;;;;;;;;;4983511;28;20373;-66
2022/04/25 14:04:53;;;;;;;11.23;3.35;;;;;;;;;;4983446;28;20413;-66
2022/04/25 14:07:20;;;;;;;7.93;3.20;;;;;;;;;;4980046;28;20026;-66
2022/04/25 14:09:46;;;;;;;9.52;3.25;;;;;;;;;;4980067;28;20018;-66
2022/04/25 14:12:13;;;;;;;9.30;2.80;;;;;;;;;;4981196;28;20018;-66
2022/04/25 14:14:39;;;;;;;9.82;2.78;;;;;;;;;;4983026;28;20039;-66
2022/04/25 14:17:06;;;;;;;9.38;2.97;;;;;;;;;;4981233;28;20049;-66
2022/04/25 14:19:32;;;;;;;10.57;3.05;;;;;;;;;;4981889;28;20030;-66
2022/04/25 14:21:59;;;;;;;9.95;2.85;;;;;;;;;;4980209;28;20026;-66
2022/04/25 14:24:25;;;;;;;11.65;2.90;;;;;;;;;;4982851;28;20031;-66
2022/04/25 14:26:52;;;;;;;7.45;2.95;;;;;;;;;;4981707;28;20049;-66
2022/04/25 14:29:18;;;;;;;10.80;3.13;;;;;;;;;;4981367;28;20484;-66
2022/04/25 14:31:44;;;;;;;12.25;3.22;;;;;;;;;;4984488;28;20484;-66
2022/04/25 14:34:10;;;;;;;14.50;3.25;;;;;;;;;;4981500;28;20039;-66
2022/04/25 14:36:37;;;;;;;13.05;4.35;;;;;;;;;;4981812;28;20038;-65
2022/04/25 14:39:03;;;;;;;15.23;3.60;;;;;;;;;;4982486;28;20033;-65
2022/04/25 14:41:29;;;;;;;16.73;3.10;;;;;;;;;;4980224;28;20035;-65
2022/04/25 14:43:57;;;;;;;7.90;3.20;;;;;;;;;;4980387;28;20053;-66
2022/04/25 14:46:24;;;;;;;12.77;3.30;;;;;;;;;;4978152;28;20492;-66
2022/04/25 14:48:50;;;;;;;15.20;3.72;;;;;;;;;;4975361;28;20034;-66
2022/04/25 14:56:46;;;;;;;9.70;3.00;;;;;;;;;;4983335;28;20055;-66
2022/04/25 14:59:14;;;;;;;11.18;4.30;;;;;;;;;;4975427;28;20042;-66
2022/04/25 15:01:40;;;;;;;8.57;3.40;;;;;;;;;;4991869;28;20038;-66
2022/04/25 15:04:07;;;;;;;10.18;3.45;;;;;;;;;;4991584;28;20403;-66
2022/04/25 15:06:33;;;;;;;13.45;4.15;;;;;;;;;;4991904;28;20049;-66
2022/04/25 15:08:59;;;;;;;6.03;3.15;;;;;;;;;;4991321;28;20052;-66